Fort Campbell, KY

4:45 PM CST on February 19, 2017 (GMT -0600)
Campbell Army Air Field

Weather History for KHOP - June, 2013

Change the Weather History Date:

Monday, June 10, 2013

  Actual Average Record
Temperature  
Mean Temperature 74 °F -  
Max Temperature 82 °F 81 °F 95 °F (1998)
Min Temperature 66 °F 63 °F 52 °F (2007)
Cooling Degree Days 8    
Growing Degree Days 24 (Base 50)    
Moisture  
Dew Point 69 °F    
Average Humidity 95    
Maximum Humidity 100    
Minimum Humidity 56    
Precipitation  
Precipitation 0.07 in - - ()
Sea Level Pressure  
Sea Level Pressure 29.88 in    
Wind  
Wind Speed 7 mph (SW)    
Max Wind Speed 20 mph    
Max Gust Speed 26 mph    
Visibility 10 miles    
Events Rain , Thunderstorm    
Averages and records for this station are not official NWS values.
T = Trace of Precipitation, MM = Missing Value Source: NWS Daily Summary

Daily Weather History Graph

Daily Weather History Graph

Search for Another Location

Airport or City:

Trip Planner

Search our weather history database for the weather conditions in past years. The results will help you decide how hot, cold, wet, or windy it might be!

Date:

Astronomy

Jun. 10, 2013 Rise Set
Actual Time 5:30 AM CDT 8:08 PM CDT
Civil Twilight 5:00 AM CDT 8:38 PM CDT
Nautical Twilight 4:22 AM CDT 9:16 PM CDT
Astronomical Twilight 3:40 AM CDT 9:59 PM CDT
Moon 7:16 AM CDT (6/10) 9:37 PM CDT (6/10)
Length of Visible Light 15h 38m
Length of Day
14h 37m
Waxing Crescent, 4% of the Moon is Illuminated
Jun 10
Waxing Crescent
Jun 16
First Quarter
Jun 23
Full
Jun 29
Last Quarter
Jul 8
New

Hourly Weather History & Observations

Time (CDT) Temp. Heat Index Dew Point Humidity Pressure Visibility Wind Dir Wind Speed Gust Speed Precip Events Conditions
12:03 AM 68.0 °F - 68.0 °F 100% 29.88 in 10.0 mi SSE 4.6 mph - N/A   Light Drizzle
12:10 AM 68.0 °F - 68.0 °F 100% 29.88 in 10.0 mi SSE 5.8 mph - N/A   Light Drizzle
12:11 AM 68.0 °F - 68.0 °F 100% 29.88 in 10.0 mi SSE 5.8 mph - N/A   Light Drizzle
12:12 AM 68.0 °F - 68.0 °F 100% 29.88 in 10.0 mi SSE 5.8 mph - N/A   Mostly Cloudy
12:13 AM 68.0 °F - 68.0 °F 100% 29.88 in 10.0 mi SSE 4.6 mph - N/A   Mostly Cloudy
12:15 AM 68.0 °F - 68.0 °F 100% 29.88 in 10.0 mi South 4.6 mph - N/A   Mostly Cloudy
12:18 AM 68.0 °F - 68.0 °F 100% 29.88 in 10.0 mi SSE 5.8 mph - N/A   Mostly Cloudy
12:20 AM 68.0 °F - 68.0 °F 100% 29.87 in 10.0 mi SSE 5.8 mph - N/A   Mostly Cloudy
12:22 AM 68.0 °F - 68.0 °F 100% 29.87 in 10.0 mi SSE 4.6 mph - N/A   Mostly Cloudy
12:23 AM 68.0 °F - 68.0 °F 100% 29.87 in 10.0 mi South 4.6 mph - N/A   Mostly Cloudy
12:29 AM 68.0 °F - 68.0 °F 100% 29.87 in 10.0 mi South 4.6 mph - N/A   Light Drizzle
12:39 AM 68.0 °F - 68.0 °F 100% 29.87 in 10.0 mi South 5.8 mph - N/A   Overcast
12:58 AM 67.3 °F - 67.3 °F 100% 29.86 in 10.0 mi South 3.5 mph - 0.00 in   Overcast
1:17 AM 68.0 °F - 68.0 °F 100% 29.87 in 10.0 mi South 4.6 mph - N/A   Overcast
1:58 AM 66.9 °F - 66.9 °F 100% 29.84 in 10.0 mi SSW 2.3 mph - N/A   Mostly Cloudy
2:58 AM 66.2 °F - 66.2 °F 100% 29.84 in 10.0 mi SW 4.6 mph - N/A   Mostly Cloudy
3:05 AM 66.2 °F - 66.2 °F 100% 29.85 in 10.0 mi SW 4.6 mph - N/A   Mostly Cloudy
3:12 AM 66.2 °F - 66.2 °F 100% 29.85 in 10.0 mi SW 5.8 mph - N/A   Mostly Cloudy
3:27 AM 66.2 °F - 66.2 °F 100% 29.85 in 10.0 mi SW 5.8 mph - N/A   Overcast
3:46 AM 66.2 °F - 66.2 °F 100% 29.85 in 10.0 mi SSW 6.9 mph - N/A   Overcast
3:48 AM 66.2 °F - 66.2 °F 100% 29.85 in 10.0 mi SSW 5.8 mph - N/A   Overcast
3:58 AM 66.4 °F - 66.4 °F 100% 29.84 in 10.0 mi SW 5.8 mph - N/A   Overcast
3:59 AM 66.2 °F - 66.2 °F 100% 29.85 in 10.0 mi SW 6.9 mph - N/A   Overcast
4:04 AM 66.2 °F - 66.2 °F 100% 29.85 in 10.0 mi SW 6.9 mph - N/A   Overcast
4:53 AM 66.2 °F - 66.2 °F 100% 29.85 in 10.0 mi SW 8.1 mph - N/A   Overcast
4:57 AM 66.2 °F - 66.2 °F 100% 29.86 in 10.0 mi SW 8.1 mph - N/A   Overcast
4:58 AM 66.9 °F - 66.9 °F 100% 29.85 in 10.0 mi SW 6.9 mph - N/A   Overcast
5:25 AM 68.0 °F - 68.0 °F 100% 29.86 in 10.0 mi WSW 10.4 mph - N/A   Overcast
5:58 AM 67.5 °F - 67.5 °F 100% 29.87 in 10.0 mi WSW 15.0 mph - N/A   Overcast
6:01 AM 68.0 °F - 68.0 °F 100% 29.88 in 10.0 mi WSW 15.0 mph - N/A   Overcast
6:27 AM 68.0 °F - 68.0 °F 100% 29.89 in 10.0 mi WSW 11.5 mph - N/A   Overcast
6:29 AM 68.0 °F - 68.0 °F 100% 29.89 in 10.0 mi WSW 10.4 mph - N/A   Overcast
6:34 AM 68.0 °F - 68.0 °F 100% 29.89 in 10.0 mi WSW 10.4 mph - N/A   Overcast
6:43 AM 68.0 °F - 68.0 °F 100% 29.89 in 10.0 mi WSW 9.2 mph - N/A   Overcast
6:45 AM 68.0 °F - 68.0 °F 100% 29.89 in 10.0 mi WSW 8.1 mph - N/A   Overcast
6:47 AM 68.0 °F - 68.0 °F 100% 29.90 in 10.0 mi WSW 6.9 mph - N/A   Overcast
6:55 AM 68.0 °F - 68.0 °F 100% 29.90 in 10.0 mi WSW 5.8 mph - N/A   Mostly Cloudy
6:58 AM 67.8 °F - 67.8 °F 100% 29.90 in 10.0 mi WSW 5.8 mph - N/A   Mostly Cloudy
7:08 AM 68.0 °F - 68.0 °F 100% 29.90 in 10.0 mi SW 6.9 mph - N/A   Mostly Cloudy
7:09 AM 68.0 °F - 68.0 °F 100% 29.90 in 10.0 mi SW 6.9 mph - N/A   Scattered Clouds
7:13 AM 68.0 °F - 68.0 °F 100% 29.90 in 10.0 mi SW 6.9 mph - N/A   Mostly Cloudy
7:19 AM 69.8 °F - 69.8 °F 100% 29.90 in 10.0 mi SW 9.2 mph - N/A   Mostly Cloudy
7:35 AM 69.8 °F - 69.8 °F 100% 29.91 in 10.0 mi SW 10.4 mph - N/A   Mostly Cloudy
7:48 AM 69.8 °F - 69.8 °F 100% 29.91 in 10.0 mi SW 9.2 mph - N/A   Mostly Cloudy
7:55 AM 69.8 °F - 69.8 °F 100% 29.91 in 10.0 mi SW 8.1 mph - N/A   Mostly Cloudy
7:58 AM 69.6 °F - 69.6 °F 100% 29.91 in 10.0 mi SW 10.4 mph - N/A   Mostly Cloudy
8:46 AM 73.4 °F - 71.6 °F 94% 29.92 in 10.0 mi SSW 13.8 mph - N/A   Mostly Cloudy
8:58 AM 71.6 °F - 70.5 °F 96% 29.92 in 10.0 mi SSW 11.5 mph - N/A   Scattered Clouds
9:30 AM 71.6 °F - 69.8 °F 94% 29.92 in 10.0 mi SW 8.1 mph - N/A   Light Drizzle
9:40 AM 71.6 °F - 69.8 °F 94% 29.92 in 10.0 mi SSW 8.1 mph - N/A   Clear
9:58 AM 73.0 °F - 69.8 °F 90% 29.91 in 10.0 mi South 5.8 mph - 0.01 in   Scattered Clouds
10:28 AM 73.4 °F - 69.8 °F 88% 29.91 in 10.0 mi SSW 6.9 mph - N/A Rain Light Rain
10:36 AM 73.4 °F - 71.6 °F 94% 29.92 in 8.0 mi SW 9.2 mph - N/A Rain , Thunderstorm Thunderstorms and Rain
10:40 AM 71.6 °F - 71.6 °F 100% 29.91 in 3.0 mi SSW 6.9 mph - N/A Rain , Thunderstorm Thunderstorms and Rain
10:50 AM 71.6 °F - 71.6 °F 100% 29.91 in 9.0 mi SSW 8.1 mph - N/A Thunderstorm Thunderstorm
10:51 AM 71.6 °F - 71.6 °F 100% 29.91 in 10.0 mi SSW 6.9 mph - N/A   Mostly Cloudy
10:58 AM 72.0 °F - 72.0 °F 100% 29.91 in 10.0 mi South 3.5 mph - 0.04 in   Mostly Cloudy
11:05 AM 71.6 °F - 71.6 °F 100% 29.91 in 10.0 mi South 4.6 mph - N/A   Light Drizzle
11:14 AM 71.6 °F - 71.6 °F 100% 29.90 in 10.0 mi Variable 2.3 mph - N/A   Mostly Cloudy
11:16 AM 71.6 °F - 71.6 °F 100% 29.90 in 10.0 mi SE 2.3 mph - N/A   Light Drizzle
11:37 AM 71.6 °F - 71.6 °F 100% 29.90 in 10.0 mi SSE 4.6 mph - N/A   Scattered Clouds
11:40 AM 71.6 °F - 71.6 °F 100% 29.90 in 10.0 mi SE 3.5 mph - N/A   Light Drizzle
11:56 AM 71.6 °F - 71.6 °F 100% 29.89 in 10.0 mi SE 6.9 mph - N/A   Mostly Cloudy
11:58 AM 72.3 °F - 72.3 °F 100% 29.89 in 10.0 mi SE 6.9 mph - 0.01 in   Mostly Cloudy
12:58 PM 78.3 °F - 75.2 °F 90% 29.87 in 10.0 mi SSW 11.5 mph - N/A   Mostly Cloudy
1:19 PM 77.0 °F - 75.2 °F 94% 29.87 in 10.0 mi WSW 8.1 mph - N/A   Light Drizzle
1:39 PM 78.8 °F - 77.0 °F 94% 29.86 in 10.0 mi SW 13.8 mph 17.3 mph N/A   Mostly Cloudy
1:58 PM 80.4 °F 86.1 °F 75.7 °F 86% 29.86 in 10.0 mi WSW 11.5 mph - 0.01 in   Partly Cloudy
2:20 PM 80.6 °F 83.2 °F 68.0 °F 65% 29.85 in 10.0 mi West 16.1 mph 24.2 mph N/A Rain Light Rain
2:30 PM 78.8 °F - 66.2 °F 65% 29.86 in 10.0 mi West 13.8 mph - N/A   Scattered Clouds
2:58 PM 81.1 °F 82.7 °F 64.0 °F 56% 29.84 in 10.0 mi WNW 19.6 mph 26.5 mph 0.00 in   Partly Cloudy
3:58 PM 80.8 °F 82.5 °F 64.6 °F 58% 29.84 in 10.0 mi WNW 11.5 mph - N/A   Partly Cloudy
4:58 PM 81.3 °F 83.2 °F 65.3 °F 58% 29.86 in 10.0 mi West 15.0 mph - N/A   Clear
5:58 PM 81.1 °F 83.2 °F 65.8 °F 60% 29.86 in 10.0 mi West 12.7 mph - N/A   Clear
6:58 PM 79.7 °F - 65.5 °F 62% 29.87 in 10.0 mi WNW 6.9 mph - N/A   Clear
7:58 PM 75.9 °F - 66.0 °F 71% 29.89 in 10.0 mi NNW 3.5 mph - N/A   Clear
8:58 PM 73.8 °F - 67.3 °F 80% 29.91 in 10.0 mi NNW 5.8 mph - N/A   Clear
9:58 PM 72.7 °F - 66.2 °F 80% 29.92 in 10.0 mi NNW 1.2 mph - N/A   Clear
10:58 PM 68.7 °F - 68.4 °F 99% 29.94 in 10.0 mi South 2.3 mph - N/A   Clear
11:58 PM 68.2 °F - 68.2 °F 100% 29.94 in 10.0 mi Calm Calm - N/A   Clear